Time;durP1;ratioP1;P1;durP2;ratioP2;P2;SDS_P1;SDS_P2;PMS_P1;PMS_P2;Temp;Humidity;BMP_temperature;BMP_pressure;BME280_temperature;BME280_humidity;BME280_pressure;Samples;Min_cycle;Max_cycle;Signal;HPM_P1;HPM_P2
2022/03/03 00:01:26;;;;;;;19.52;8.33;;;;;;;1.87;92.94;100139.57;1743223;82;21043;-61
2022/03/03 00:03:55;;;;;;;19.77;8.95;;;;;;;1.85;92.93;100136.67;1718676;82;21569;-60
2022/03/03 00:06:25;;;;;;;17.90;8.48;;;;;;;1.83;92.96;100134.61;1718754;82;21155;-61
2022/03/03 00:08:54;;;;;;;18.80;9.30;;;;;;;1.85;92.99;100138.02;1746097;82;21023;-61
2022/03/03 00:11:23;;;;;;;15.23;8.08;;;;;;;1.84;92.93;100129.06;1746058;82;21476;-62
2022/03/03 00:13:52;;;;;;;17.27;8.98;;;;;;;1.81;92.95;100128.51;1746080;82;21055;-60
2022/03/03 00:16:22;;;;;;;18.02;8.20;;;;;;;1.82;93.03;100124.31;1746056;82;21572;-60
2022/03/03 00:18:52;;;;;;;19.17;9.08;;;;;;;1.83;93.06;100115.70;1718782;82;21495;-60
2022/03/03 00:21:21;;;;;;;17.85;8.45;;;;;;;1.80;93.09;100122.75;1746198;82;21503;-61
2022/03/03 00:23:51;;;;;;;24.05;9.63;;;;;;;1.81;93.18;100127.16;1718454;82;21527;-62
2022/03/03 00:26:19;;;;;;;16.80;8.33;;;;;;;1.80;93.16;100122.75;1746184;82;21126;-61
2022/03/03 00:28:48;;;;;;;18.40;8.53;;;;;;;1.80;93.18;100120.91;1746048;82;21142;-60
2022/03/03 00:31:17;;;;;;;20.02;9.05;;;;;;;1.77;93.14;100118.50;1718637;82;21333;-62
2022/03/03 00:33:45;;;;;;;21.62;9.60;;;;;;;1.73;93.13;100115.75;1746042;82;21087;-61
2022/03/03 00:36:14;;;;;;;18.52;8.45;;;;;;;1.73;93.21;100114.89;1746335;82;21436;-61
2022/03/03 00:38:43;;;;;;;22.17;9.68;;;;;;;1.72;93.20;100122.64;1656959;86;21094;-61
2022/03/03 00:41:13;;;;;;;21.40;9.45;;;;;;;1.71;93.22;100116.89;1651641;86;21451;-60
2022/03/03 00:43:41;;;;;;;22.05;9.63;;;;;;;1.70;93.27;100116.05;1651523;87;21035;-62
2022/03/03 00:46:10;;;;;;;21.87;9.30;;;;;;;1.73;93.39;100118.45;1651704;87;21098;-61
2022/03/03 00:48:40;;;;;;;20.82;9.10;;;;;;;1.74;93.48;100108.50;1651963;87;21062;-62
2022/03/03 00:51:09;;;;;;;21.55;9.10;;;;;;;1.77;93.49;100107.70;1657059;85;21056;-61
2022/03/03 00:53:38;;;;;;;21.35;9.18;;;;;;;1.77;93.50;100108.20;1704088;84;21039;-60
2022/03/03 00:56:07;;;;;;;20.27;8.55;;;;;;;1.79;93.50;100098.09;1722534;80;21432;-62
2022/03/03 00:58:36;;;;;;;19.50;9.43;;;;;;;1.76;93.43;100096.55;1699669;83;21468;-60
2022/03/03 01:01:06;;;;;;;20.30;9.55;;;;;;;1.77;93.50;100098.74;1798915;80;21051;-61
2022/03/03 01:03:36;;;;;;;19.37;9.00;;;;;;;1.80;93.61;100098.45;1798642;80;21496;-62
2022/03/03 01:06:05;;;;;;;21.23;8.83;;;;;;;1.80;93.62;100100.65;1718661;83;21499;-61
2022/03/03 01:08:34;;;;;;;19.50;9.23;;;;;;;1.75;93.49;100093.99;1769890;80;21146;-60
2022/03/03 01:11:04;;;;;;;18.75;8.55;;;;;;;1.73;93.47;100096.84;1799132;80;21020;-60
2022/03/03 01:13:34;;;;;;;19.40;8.90;;;;;;;1.72;93.49;100103.74;1718678;83;21159;-60
2022/03/03 01:16:03;;;;;;;21.00;9.43;;;;;;;1.71;93.55;100096.64;1798749;79;20973;-60
2022/03/03 01:18:32;;;;;;;19.00;9.23;;;;;;;1.72;93.62;100093.79;1798853;80;21016;-60
2022/03/03 01:21:02;;;;;;;20.35;8.78;;;;;;;1.73;93.67;100090.09;1799102;80;21146;-60
2022/03/03 01:23:31;;;;;;;20.15;8.43;;;;;;;1.73;93.65;100087.89;1798927;80;21047;-61
2022/03/03 01:26:01;;;;;;;22.98;9.60;;;;;;;1.72;93.61;100096.98;1699954;83;21534;-61
2022/03/03 01:28:30;;;;;;;18.45;8.53;;;;;;;1.69;93.54;100095.94;1798820;80;21487;-60
2022/03/03 01:31:00;;;;;;;17.85;8.63;;;;;;;1.66;93.57;100088.98;1700104;83;21463;-60
2022/03/03 01:33:29;;;;;;;19.20;8.90;;;;;;;1.68;93.69;100089.69;1769871;80;21174;-61
2022/03/03 01:35:58;;;;;;;19.70;8.58;;;;;;;1.70;93.69;100096.29;1799065;80;21040;-60
2022/03/03 01:38:29;;;;;;;23.20;8.85;;;;;;;1.69;93.70;100092.73;1718642;83;21015;-61
2022/03/03 01:40:58;;;;;;;17.57;8.60;;;;;;;1.71;93.75;100092.09;1799106;80;20984;-63
2022/03/03 01:43:30;;;;;;;19.27;8.65;;;;;;;1.73;93.75;100084.69;1699777;83;21527;-62
2022/03/03 01:46:01;;;;;;;19.37;8.98;;;;;;;1.74;93.79;100081.48;1799119;80;21055;-60
2022/03/03 01:48:30;;;;;;;19.27;8.78;;;;;;;1.73;93.77;100081.98;1799265;80;21024;-61
2022/03/03 01:50:59;;;;;;;18.52;8.13;;;;;;;1.71;93.71;100086.69;1800149;79;21028;-61
2022/03/03 01:53:28;;;;;;;17.32;8.13;;;;;;;1.69;93.70;100072.98;1720729;83;21028;-61
2022/03/03 01:55:57;;;;;;;16.97;8.00;;;;;;;1.69;93.73;100075.69;1800758;80;21055;-61
2022/03/03 01:58:26;;;;;;;18.30;8.45;;;;;;;1.71;93.75;100077.23;1669392;83;21040;-60
2022/03/03 02:00:56;;;;;;;17.02;7.62;;;;;;;1.71;93.74;100075.89;1799013;80;21009;-60
2022/03/03 02:03:25;;;;;;;17.77;8.20;;;;;;;1.70;93.77;100077.39;1718496;82;21016;-61
2022/03/03 02:05:54;;;;;;;20.25;8.50;;;;;;;1.68;93.75;100077.53;1798851;80;21039;-61
2022/03/03 02:08:24;;;;;;;17.27;8.08;;;;;;;1.66;93.71;100073.28;1718711;83;21440;-61
2022/03/03 02:10:53;;;;;;;17.85;7.58;;;;;;;1.65;93.74;100075.63;1769958;80;21509;-61
2022/03/03 02:13:23;;;;;;;16.42;7.58;;;;;;;1.65;93.78;100076.98;1718507;83;21522;-61
2022/03/03 02:15:54;;;;;;;20.23;9.03;;;;;;;1.65;93.78;100072.93;1799134;80;21414;-60
2022/03/03 02:18:23;;;;;;;18.12;8.50;;;;;;;1.62;93.80;100067.33;1718524;83;21066;-60
2022/03/03 02:20:55;;;;;;;17.57;8.80;;;;;;;1.62;93.78;100062.42;1799054;80;21605;-62
2022/03/03 02:23:24;;;;;;;18.23;7.87;;;;;;;1.56;93.68;100063.38;1699863;83;21512;-61
2022/03/03 02:25:52;;;;;;;18.45;8.80;;;;;;;1.56;93.72;100060.67;1798933;80;20992;-61
2022/03/03 02:28:23;;;;;;;19.07;8.33;;;;;;;1.56;93.75;100055.27;1718481;83;21060;-62
2022/03/03 02:30:52;;;;;;;19.37;8.40;;;;;;;1.59;93.85;100061.72;1769923;80;21625;-61
2022/03/03 02:33:21;;;;;;;20.52;8.55;;;;;;;1.61;93.87;100054.83;1718715;83;21575;-61
2022/03/03 02:35:51;;;;;;;20.43;9.98;;;;;;;1.62;93.91;100055.67;1798880;80;21047;-60
2022/03/03 02:38:20;;;;;;;21.00;8.43;;;;;;;1.64;93.93;100055.03;1798933;80;21494;-61
2022/03/03 02:40:50;;;;;;;16.80;8.30;;;;;;;1.67;93.96;100045.28;1699917;83;21088;-60
2022/03/03 02:43:21;;;;;;;19.95;8.38;;;;;;;1.67;93.90;100043.93;1799096;80;21059;-61
2022/03/03 02:45:50;;;;;;;17.70;7.67;;;;;;;1.69;93.92;100043.27;1718586;83;21160;-60
2022/03/03 02:48:19;;;;;;;19.92;8.85;;;;;;;1.65;93.89;100035.97;1769922;80;21590;-61
2022/03/03 02:50:49;;;;;;;21.17;8.78;;;;;;;1.64;93.87;100033.42;1718760;83;21545;-62
2022/03/03 02:53:18;;;;;;;21.62;8.88;;;;;;;1.59;93.86;100026.63;1798818;80;21602;-62
2022/03/03 02:55:48;;;;;;;18.35;8.33;;;;;;;1.60;93.90;100032.88;1699688;83;21535;-61
2022/03/03 02:58:18;;;;;;;18.65;8.55;;;;;;;1.59;93.92;100027.97;1770010;80;21080;-61
2022/03/03 03:00:47;;;;;;;20.05;8.98;;;;;;;1.61;93.97;100031.02;1699818;83;21047;-61
2022/03/03 03:03:17;;;;;;;21.42;8.50;;;;;;;1.60;93.96;100030.17;1798915;79;21147;-61
2022/03/03 03:05:46;;;;;;;17.70;7.80;;;;;;;1.61;94.00;100021.58;1699712;83;21039;-61
2022/03/03 03:08:16;;;;;;;20.45;8.43;;;;;;;1.61;94.01;100025.12;1798912;80;21031;-61
2022/03/03 03:10:46;;;;;;;20.85;8.70;;;;;;;1.62;94.00;100015.17;1718398;83;21567;-61
2022/03/03 03:13:15;;;;;;;17.90;7.87;;;;;;;1.61;93.98;100013.47;1769874;80;21056;-61
2022/03/03 03:15:45;;;;;;;17.57;7.83;;;;;;;1.59;94.00;100011.77;1718365;83;21476;-62
2022/03/03 03:18:17;;;;;;;17.67;7.85;;;;;;;1.61;94.07;100006.72;1799168;80;21083;-61
2022/03/03 03:20:49;;;;;;;20.88;9.15;;;;;;;1.59;94.08;100003.67;1699635;83;21067;-62
2022/03/03 03:23:19;;;;;;;21.15;8.25;;;;;;;1.59;94.09;100005.02;1799106;80;21048;-61
2022/03/03 03:25:48;;;;;;;16.35;7.47;;;;;;;1.59;94.12;100001.47;1769747;80;21083;-61
2022/03/03 03:28:18;;;;;;;19.20;7.80;;;;;;;1.59;94.11;99996.92;1699882;83;21143;-61
2022/03/03 03:30:47;;;;;;;17.85;7.87;;;;;;;1.57;94.10;99991.32;1769858;80;21137;-62
2022/03/03 03:33:16;;;;;;;17.00;7.80;;;;;;;1.56;94.14;99990.48;1798927;80;21452;-61
2022/03/03 03:35:45;;;;;;;17.17;7.28;;;;;;;1.54;94.13;99992.47;1699803;83;21032;-61
2022/03/03 03:38:14;;;;;;;16.90;7.50;;;;;;;1.52;94.17;99986.88;1799252;80;21444;-60
2022/03/03 03:40:43;;;;;;;17.67;7.15;;;;;;;1.52;94.19;99989.08;1699848;83;21043;-62
2022/03/03 03:43:14;;;;;;;14.85;6.55;;;;;;;1.52;94.23;99984.17;1798974;80;21099;-62
2022/03/03 03:45:43;;;;;;;13.45;6.85;;;;;;;1.52;94.24;99987.73;1718439;83;21503;-61
2022/03/03 03:48:12;;;;;;;14.13;6.33;;;;;;;1.53;94.28;99989.92;1769858;80;21661;-60
2022/03/03 03:50:40;;;;;;;15.20;6.37;;;;;;;1.54;94.29;99983.02;1718467;83;21130;-60
2022/03/03 03:53:10;;;;;;;16.55;6.60;;;;;;;1.53;94.30;99978.63;1782292;79;21090;-62
2022/03/03 03:55:39;;;;;;;14.18;6.35;;;;;;;1.54;94.25;99978.97;1747704;82;21546;-61
2022/03/03 03:58:08;;;;;;;13.25;6.00;;;;;;;1.53;94.22;99973.72;1785424;79;21503;-61
2022/03/03 04:00:36;;;;;;;16.05;6.35;;;;;;;1.55;94.25;99975.28;1747649;82;21027;-62
2022/03/03 04:03:06;;;;;;;13.70;6.97;;;;;;;1.53;94.20;99974.58;1817077;79;21443;-61
2022/03/03 04:05:35;;;;;;;14.50;6.63;;;;;;;1.49;94.14;99964.23;1718403;82;21483;-61
2022/03/03 04:08:05;;;;;;;15.20;6.53;;;;;;;1.48;94.17;99959.83;1817345;79;21054;-61
2022/03/03 04:10:36;;;;;;;13.85;5.92;;;;;;;1.48;94.20;99962.53;1747667;82;21043;-61
2022/03/03 04:13:04;;;;;;;13.58;6.45;;;;;;;1.48;94.20;99957.98;1817089;79;21573;-61
2022/03/03 04:15:34;;;;;;;12.28;5.95;;;;;;;1.48;94.24;99961.18;1747993;82;21043;-61
2022/03/03 04:18:03;;;;;;;11.00;5.33;;;;;;;1.48;94.32;99957.98;1785429;79;21533;-61
2022/03/03 04:20:32;;;;;;;14.35;6.03;;;;;;;1.49;94.33;99961.53;1747837;82;21078;-60
2022/03/03 04:23:01;;;;;;;12.07;5.97;;;;;;;1.45;94.19;99960.12;1817429;79;21523;-61
2022/03/03 04:25:30;;;;;;;12.40;5.53;;;;;;;1.42;94.15;99963.98;1747702;82;21479;-61
2022/03/03 04:28:00;;;;;;;11.43;5.70;;;;;;;1.42;94.22;99954.53;1817059;79;21439;-62
2022/03/03 04:30:29;;;;;;;13.05;5.85;;;;;;;1.41;94.23;99951.48;1817366;79;21126;-61
2022/03/03 04:32:58;;;;;;;12.28;5.58;;;;;;;1.42;94.29;99959.93;1718265;82;21558;-60
2022/03/03 04:35:28;;;;;;;12.70;5.55;;;;;;;1.45;94.39;99963.68;1817330;79;21016;-62
2022/03/03 04:37:59;;;;;;;15.08;6.58;;;;;;;1.44;94.32;99951.19;1747550;82;21075;-62
2022/03/03 04:40:28;;;;;;;12.90;5.78;;;;;;;1.43;94.31;99957.58;1785457;79;21468;-62
2022/03/03 04:42:58;;;;;;;9.63;5.22;;;;;;;1.46;94.40;99957.28;1747626;82;21082;-62
2022/03/03 04:45:27;;;;;;;10.95;5.25;;;;;;;1.47;94.40;99950.88;1817188;79;21146;-62
2022/03/03 04:47:55;;;;;;;11.25;5.25;;;;;;;1.48;94.46;99955.78;1747718;82;21114;-61
2022/03/03 04:50:24;;;;;;;11.63;5.60;;;;;;;1.49;94.49;99949.38;1817042;78;21544;-61
2022/03/03 04:52:53;;;;;;;13.35;5.85;;;;;;;1.48;94.43;99955.28;1718240;82;21122;-62
2022/03/03 04:55:22;;;;;;;10.10;5.53;;;;;;;1.48;94.35;99954.43;1817504;79;21022;-61
2022/03/03 04:57:51;;;;;;;10.10;4.97;;;;;;;1.46;94.28;99955.93;1785339;79;21032;-61
2022/03/03 05:00:20;;;;;;;10.68;5.15;;;;;;;1.45;94.27;99950.68;1747857;82;21487;-61
2022/03/03 05:02:50;;;;;;;9.73;4.80;;;;;;;1.43;94.25;99950.83;1817073;79;21475;-61
2022/03/03 05:05:19;;;;;;;9.90;4.67;;;;;;;1.47;94.35;99951.38;1747947;82;21547;-63
2022/03/03 05:07:48;;;;;;;10.00;4.80;;;;;;;1.49;94.34;99952.08;1817229;79;21011;-62
2022/03/03 05:10:18;;;;;;;9.78;4.85;;;;;;;1.49;94.31;99948.88;1747910;82;21522;-61
2022/03/03 05:12:47;;;;;;;9.55;5.22;;;;;;;1.49;94.29;99950.73;1817259;79;21047;-61
2022/03/03 05:15:17;;;;;;;10.13;5.00;;;;;;;1.45;94.17;99948.84;1718243;82;21505;-61
2022/03/03 05:17:46;;;;;;;10.15;4.90;;;;;;;1.45;94.23;99952.03;1785409;79;21514;-61
2022/03/03 05:20:15;;;;;;;9.25;4.65;;;;;;;1.46;94.26;99946.48;1718549;82;21161;-60
2022/03/03 05:22:45;;;;;;;10.23;5.08;;;;;;;1.46;94.16;99945.63;1785392;79;20992;-61
2022/03/03 05:25:14;;;;;;;9.70;5.10;;;;;;;1.43;94.11;99946.78;1747856;82;21031;-62
2022/03/03 05:27:44;;;;;;;10.00;5.05;;;;;;;1.45;94.23;99950.18;1817059;79;20984;-62
2022/03/03 05:30:15;;;;;;;9.85;4.70;;;;;;;1.46;94.21;99946.98;1747580;82;21121;-61
2022/03/03 05:32:44;;;;;;;10.32;5.08;;;;;;;1.47;94.21;99943.28;1817095;79;21108;-61
2022/03/03 05:35:12;;;;;;;10.25;4.90;;;;;;;1.47;94.11;99951.38;1747732;82;21003;-62
2022/03/03 05:37:41;;;;;;;8.60;4.60;;;;;;;1.44;94.05;99943.09;1817207;78;21423;-61
2022/03/03 05:40:11;;;;;;;9.38;4.33;;;;;;;1.46;94.03;99946.48;1747649;82;21052;-60
2022/03/03 05:42:40;;;;;;;9.98;4.47;;;;;;;1.46;94.03;99938.38;1817044;79;21035;-60
2022/03/03 05:45:11;;;;;;;11.20;5.08;;;;;;;1.44;93.92;99941.73;1747654;82;21039;-61
2022/03/03 05:47:40;;;;;;;10.55;4.87;;;;;;;1.42;93.89;99946.44;1785319;79;21019;-61
2022/03/03 05:50:09;;;;;;;10.53;4.60;;;;;;;1.43;93.95;99944.59;1747750;82;21565;-60
2022/03/03 05:52:38;;;;;;;10.90;4.83;;;;;;;1.44;93.92;99939.03;1816327;79;21035;-62
2022/03/03 05:55:08;;;;;;;10.18;5.10;;;;;;;1.43;93.86;99935.98;1715825;82;21146;-61
2022/03/03 05:57:41;;;;;;;9.80;5.45;;;;;;;1.45;93.86;99934.48;1815029;79;21043;-60
2022/03/03 06:00:14;;;;;;;10.40;5.28;;;;;;;1.45;93.85;99939.38;1753232;79;21471;-61
2022/03/03 06:02:52;;;;;;;8.40;4.47;;;;;;;1.49;93.94;99936.73;1814770;79;21027;-61
2022/03/03 06:05:26;;;;;;;9.75;4.42;;;;;;;1.49;93.85;99935.38;1716065;82;21040;-61
2022/03/03 06:08:05;;;;;;;11.90;5.37;;;;;;;1.49;93.76;99939.44;1814786;79;20972;-61
2022/03/03 06:10:35;;;;;;;9.10;4.40;;;;;;;1.48;93.73;99943.13;1814938;79;21011;-61
2022/03/03 06:13:18;;;;;;;9.38;4.87;;;;;;;1.46;93.65;99940.23;1814792;79;21186;-61
2022/03/03 06:15:48;;;;;;;11.43;5.47;;;;;;;1.45;93.61;99943.94;1745459;82;21494;-60
2022/03/03 06:18:26;;;;;;;10.25;4.72;;;;;;;1.41;93.55;99937.98;1814826;79;21062;-63
2022/03/03 06:20:56;;;;;;;9.48;4.80;;;;;;;1.43;93.60;99932.44;1815166;79;21440;-62
2022/03/03 06:23:26;;;;;;;9.05;4.42;;;;;;;1.43;93.57;99930.59;1814974;79;21047;-63
2022/03/03 06:26:04;;;;;;;6.67;4.25;;;;;;;1.44;93.54;99933.64;1745464;82;21166;-61
2022/03/03 06:28:34;;;;;;;8.13;4.40;;;;;;;1.44;93.50;99930.94;1814695;79;21034;-62
2022/03/03 06:31:04;;;;;;;7.87;4.47;;;;;;;1.44;93.45;99934.98;1745466;82;21122;-61
2022/03/03 06:33:35;;;;;;;7.70;4.60;;;;;;;1.43;93.35;99930.59;1758142;79;21186;-62
2022/03/03 06:36:05;;;;;;;7.10;3.92;;;;;;;1.43;93.34;99929.23;1745578;82;21059;-62
2022/03/03 06:38:34;;;;;;;8.83;4.72;;;;;;;1.45;93.31;99925.04;1814869;79;21047;-62
2022/03/03 06:41:05;;;;;;;6.75;3.60;;;;;;;1.49;93.36;99926.44;1814876;79;21468;-60
2022/03/03 06:43:36;;;;;;;6.78;4.05;;;;;;;1.53;93.44;99921.94;1745471;82;21162;-62
2022/03/03 06:46:05;;;;;;;6.58;3.80;;;;;;;1.57;93.42;99926.53;1814723;79;21119;-62
2022/03/03 06:48:34;;;;;;;6.35;3.20;;;;;;;1.58;93.33;99925.52;1745465;82;21063;-61
2022/03/03 06:51:04;;;;;;;9.78;4.05;;;;;;;1.57;93.25;99921.98;1814980;79;21483;-61
2022/03/03 06:53:36;;;;;;;6.58;4.00;;;;;;;1.59;93.23;99929.42;1814534;79;21031;-62
2022/03/03 06:56:08;;;;;;;6.42;3.60;;;;;;;1.62;93.26;99924.72;1814767;79;21149;-61
2022/03/03 06:58:37;;;;;;;6.35;3.85;;;;;;;1.66;93.18;99924.77;1745722;82;21158;-61
2022/03/03 07:01:12;;;;;;;5.60;3.67;;;;;;;1.66;93.12;99925.61;1814680;79;21102;-60
2022/03/03 07:03:41;;;;;;;6.03;3.65;;;;;;;1.68;93.09;99925.46;1814673;79;21019;-62
2022/03/03 07:06:13;;;;;;;7.90;4.35;;;;;;;1.69;93.03;99924.46;1745506;82;21023;-62
2022/03/03 07:08:42;;;;;;;6.20;3.60;;;;;;;1.68;92.89;99922.26;1815070;79;21427;-61
2022/03/03 07:11:11;;;;;;;6.65;3.92;;;;;;;1.71;92.95;99926.00;1745589;82;21020;-60
2022/03/03 07:13:44;;;;;;;6.83;3.90;;;;;;;1.73;92.90;99931.25;1814676;79;21432;-61
2022/03/03 07:16:55;;;;;;;7.33;4.20;;;;;;;1.73;92.89;99921.80;1814787;79;21027;-62
2022/03/03 07:19:45;;;;;;;7.83;3.60;;;;;;;1.75;92.90;99921.14;1745991;82;21504;-61
2022/03/03 07:22:38;;;;;;;6.58;3.85;;;;;;;1.78;92.86;99926.24;1814850;79;20971;-61
2022/03/03 07:25:13;;;;;;;6.55;3.55;;;;;;;1.80;92.88;99924.23;1716022;82;21491;-61
2022/03/03 07:27:45;;;;;;;7.12;3.42;;;;;;;1.84;92.85;99926.98;1783076;79;21107;-62
2022/03/03 07:30:16;;;;;;;6.45;3.58;;;;;;;1.83;92.71;99926.63;1745673;82;21027;-62
2022/03/03 07:32:58;;;;;;;6.65;3.72;;;;;;;1.83;92.62;99923.43;1783121;79;21608;-61
2022/03/03 07:35:27;;;;;;;7.40;4.10;;;;;;;1.82;92.52;99925.78;1813797;79;21039;-60
2022/03/03 07:38:00;;;;;;;7.87;4.10;;;;;;;1.83;92.42;99927.98;1815047;79;21012;-62
2022/03/03 07:40:31;;;;;;;6.28;3.67;;;;;;;1.83;92.36;99926.13;1782355;79;21012;-61
2022/03/03 07:43:00;;;;;;;7.12;3.72;;;;;;;1.82;92.28;99916.83;1745606;82;21098;-59
2022/03/03 07:45:32;;;;;;;6.92;3.67;;;;;;;1.82;92.23;99914.12;1814791;79;21404;-61
2022/03/03 07:48:01;;;;;;;7.12;3.72;;;;;;;1.83;92.13;99910.42;1716109;82;21036;-61
2022/03/03 07:50:31;;;;;;;6.62;3.80;;;;;;;1.82;91.96;99911.43;1814831;79;21467;-61
2022/03/03 07:53:01;;;;;;;5.70;3.35;;;;;;;1.82;91.88;99917.68;1716306;82;21645;-60
2022/03/03 07:55:32;;;;;;;6.58;3.70;;;;;;;1.85;91.87;99916.02;1817086;79;21011;-61
2022/03/03 07:58:02;;;;;;;7.55;3.70;;;;;;;1.83;91.67;99915.83;1747813;82;21052;-61
2022/03/03 08:00:33;;;;;;;7.40;4.05;;;;;;;1.81;91.62;99915.98;1785480;79;21142;-62
2022/03/03 08:03:08;;;;;;;7.50;3.80;;;;;;;1.81;91.52;99912.43;1747751;82;21035;-61
2022/03/03 08:05:37;;;;;;;7.05;3.95;;;;;;;1.84;91.57;99915.67;1817199;79;21066;-61
2022/03/03 08:08:06;;;;;;;7.10;4.20;;;;;;;1.87;91.50;99914.52;1747884;82;21511;-62
2022/03/03 08:10:38;;;;;;;7.00;4.12;;;;;;;1.87;91.45;99911.81;1819320;79;21541;-61
2022/03/03 08:13:10;;;;;;;6.62;3.90;;;;;;;1.88;91.40;99905.41;1749580;82;21507;-61
2022/03/03 08:15:44;;;;;;;9.38;4.92;;;;;;;1.90;91.39;99911.51;1818443;79;21031;-61
2022/03/03 08:18:14;;;;;;;7.40;4.37;;;;;;;1.91;91.35;99909.16;1787104;79;21020;-60
2022/03/03 08:20:44;;;;;;;6.72;3.77;;;;;;;1.92;91.20;99905.45;1817078;79;21003;-61
2022/03/03 08:23:15;;;;;;;9.28;4.95;;;;;;;1.92;91.04;99897.34;1747619;82;21071;-61
2022/03/03 08:25:44;;;;;;;9.18;4.25;;;;;;;1.94;90.98;99898.55;1816948;79;21011;-61
2022/03/03 08:28:14;;;;;;;7.75;4.40;;;;;;;1.95;90.95;99894.84;1695390;82;21039;-61
2022/03/03 08:30:43;;;;;;;7.72;4.20;;;;;;;1.98;90.98;99901.31;1785515;79;21074;-62
2022/03/03 08:33:21;;;;;;;7.95;4.03;;;;;;;2.03;91.07;99899.84;1747677;82;21019;-62
2022/03/03 08:35:56;;;;;;;6.35;3.72;;;;;;;2.06;90.97;99904.94;1786509;79;21189;-62
2022/03/03 08:38:37;;;;;;;6.85;3.80;;;;;;;2.04;90.77;99902.89;1785374;79;21546;-61
2022/03/03 08:41:07;;;;;;;6.35;4.03;;;;;;;2.01;90.55;99901.00;1817094;79;21063;-62
2022/03/03 08:43:36;;;;;;;5.58;3.42;;;;;;;2.01;90.57;99907.25;1717936;82;21505;-62
2022/03/03 08:46:07;;;;;;;6.20;3.87;;;;;;;2.00;90.55;99896.09;1817210;79;21110;-62
2022/03/03 08:48:36;;;;;;;7.75;4.28;;;;;;;2.03;90.62;99895.79;1718327;82;21499;-62
2022/03/03 08:51:06;;;;;;;6.78;4.00;;;;;;;2.08;90.59;99894.82;1817267;79;21701;-61
2022/03/03 08:53:34;;;;;;;6.28;3.77;;;;;;;2.12;90.61;99900.26;1746906;82;21142;-61
2022/03/03 08:56:04;;;;;;;8.08;3.95;;;;;;;2.15;90.61;99893.19;1814684;79;21047;-61
2022/03/03 08:58:34;;;;;;;6.55;4.00;;;;;;;2.16;90.51;99903.50;1715801;82;21313;-61
2022/03/03 09:01:03;;;;;;;7.47;4.05;;;;;;;2.14;90.42;99898.25;1734587;79;21483;-62
2022/03/03 09:03:33;;;;;;;7.87;4.10;;;;;;;2.14;90.28;99902.80;1745697;82;21499;-62
2022/03/03 09:06:03;;;;;;;6.78;3.72;;;;;;;2.13;90.21;99901.95;1814800;79;21012;-61
2022/03/03 09:08:32;;;;;;;8.18;4.33;;;;;;;2.16;90.25;99903.50;1745481;82;21505;-61
2022/03/03 09:11:02;;;;;;;7.70;4.17;;;;;;;2.18;90.22;99899.63;1814947;79;21411;-60
2022/03/03 09:13:32;;;;;;;6.53;4.05;;;;;;;2.19;90.15;99897.78;1745749;82;21412;-61
2022/03/03 09:16:06;;;;;;;6.55;4.03;;;;;;;2.19;90.08;99898.62;1815080;79;21608;-62
2022/03/03 09:18:37;;;;;;;7.60;4.22;;;;;;;2.20;89.94;99905.73;1783683;79;21190;-61
2022/03/03 09:21:07;;;;;;;7.35;4.17;;;;;;;2.20;89.89;99902.18;1814770;79;21015;-61
2022/03/03 09:23:36;;;;;;;6.75;3.70;;;;;;;2.22;89.92;99904.22;1715875;82;21040;-60
2022/03/03 09:26:06;;;;;;;6.65;4.05;;;;;;;2.25;89.95;99901.71;1814783;79;21003;-62
2022/03/03 09:28:55;;;;;;;6.30;3.90;;;;;;;2.27;89.96;99905.11;1815007;79;21463;-62
2022/03/03 09:31:28;;;;;;;7.78;3.92;;;;;;;2.27;89.90;99902.40;1814492;79;21058;-64
2022/03/03 09:34:09;;;;;;;6.67;3.58;;;;;;;2.27;89.84;99903.25;1814516;79;21023;-63
2022/03/03 09:36:44;;;;;;;6.40;4.03;;;;;;;2.26;89.66;99897.50;1814926;79;21027;-61
2022/03/03 09:39:18;;;;;;;6.90;4.17;;;;;;;2.26;89.67;99900.20;1659631;86;21069;-61
2022/03/03 09:41:53;;;;;;;7.85;4.30;;;;;;;2.27;89.65;99901.05;1637480;86;21046;-61
2022/03/03 09:44:32;;;;;;;7.05;3.87;;;;;;;2.27;89.58;99899.70;1637462;86;21077;-62
2022/03/03 09:49:46;;;;;;;6.58;4.42;;;;;;;2.32;89.53;99887.91;1814174;77;27944;-61
2022/03/03 09:52:18;;;;;;;7.00;4.10;;;;;;;2.36;89.44;99889.30;1788538;80;21145;-60
2022/03/03 09:54:56;;;;;;;7.22;3.95;;;;;;;2.38;89.28;99889.98;1768716;80;21162;-62
2022/03/03 09:57:32;;;;;;;6.20;3.90;;;;;;;2.37;89.13;99881.53;1788972;79;21154;-63
2022/03/03 10:00:07;;;;;;;6.50;3.87;;;;;;;2.34;89.03;99885.39;1768616;80;21262;-61
2022/03/03 10:03:08;;;;;;;7.65;4.15;;;;;;;2.36;89.15;99883.89;1787075;80;21130;-62
2022/03/03 10:05:47;;;;;;;7.78;4.60;;;;;;;2.39;89.22;99874.11;1788736;80;21518;-63
2022/03/03 10:08:38;;;;;;;7.75;4.55;;;;;;;2.42;89.28;99873.80;1788077;80;21233;-61
2022/03/03 10:11:10;;;;;;;7.05;4.20;;;;;;;2.43;89.34;99866.88;1788644;80;21170;-62
2022/03/03 10:13:53;;;;;;;8.70;4.00;;;;;;;2.47;89.45;99870.95;1788466;80;21201;-63
2022/03/03 10:16:29;;;;;;;8.85;4.62;;;;;;;2.49;89.46;99876.20;1788655;80;21535;-61
2022/03/03 10:19:03;;;;;;;7.08;4.33;;;;;;;2.51;89.39;99877.74;1788595;80;21179;-61
2022/03/03 10:21:41;;;;;;;8.08;4.95;;;;;;;2.54;89.34;99869.81;1788859;80;21551;-61
2022/03/03 10:24:29;;;;;;;5.85;3.45;;;;;;;2.54;89.29;99864.41;1788878;80;21570;-62
2022/03/03 10:27:07;;;;;;;10.55;4.45;;;;;;;2.55;89.31;99867.46;1788625;80;21111;-61
2022/03/03 10:29:48;;;;;;;9.35;5.05;;;;;;;2.57;89.35;99868.14;1649196;87;21208;-63
2022/03/03 10:32:25;;;;;;;8.70;5.17;;;;;;;2.60;89.46;99858.39;1583630;90;21272;-61
2022/03/03 10:35:18;;;;;;;9.90;4.70;;;;;;;2.64;89.36;99865.68;1649283;87;21205;-62
2022/03/03 10:37:48;;;;;;;9.45;4.97;;;;;;;2.59;89.13;99856.67;1583533;90;21174;-61
2022/03/03 10:40:21;;;;;;;7.87;4.90;;;;;;;2.59;89.16;99860.72;1626979;87;21293;-63
2022/03/03 10:42:51;;;;;;;10.85;5.25;;;;;;;2.63;89.23;99863.48;1564131;90;21348;-61
2022/03/03 10:45:22;;;;;;;9.75;5.08;;;;;;;2.67;89.32;99861.31;1626587;87;21232;-62
2022/03/03 10:48:01;;;;;;;9.40;5.35;;;;;;;2.71;89.39;99853.22;1562474;90;21641;-62
2022/03/03 10:50:47;;;;;;;9.33;5.08;;;;;;;2.73;89.21;99849.34;1646945;87;21178;-62
2022/03/03 10:53:26;;;;;;;8.63;4.75;;;;;;;2.75;89.19;99843.27;1577728;90;21182;-61
2022/03/03 10:56:01;;;;;;;10.25;5.50;;;;;;;2.76;89.20;99850.38;1646877;87;21292;-61
2022/03/03 10:59:00;;;;;;;8.95;4.78;;;;;;;2.82;89.35;99842.96;1577495;91;21222;-61
2022/03/03 11:01:30;;;;;;;8.70;5.03;;;;;;;2.84;89.01;99836.88;1734722;79;21340;-63
2022/03/03 11:04:04;;;;;;;8.45;4.60;;;;;;;2.83;88.77;99829.78;1774601;81;21120;-62
2022/03/03 11:06:38;;;;;;;7.78;4.80;;;;;;;2.83;88.61;99832.48;1764623;81;21182;-61
2022/03/03 11:09:12;;;;;;;8.03;4.75;;;;;;;2.83;88.57;99837.89;1774579;81;21214;-61
2022/03/03 11:11:45;;;;;;;7.00;4.62;;;;;;;2.86;88.65;99843.48;1739683;81;21095;-62
2022/03/03 11:14:18;;;;;;;11.20;5.58;;;;;;;2.90;88.70;99841.30;1730962;83;21132;-62
2022/03/03 11:16:53;;;;;;;8.95;4.80;;;;;;;2.92;88.53;99836.58;1729465;83;21123;-61
2022/03/03 11:19:29;;;;;;;8.23;4.90;;;;;;;2.93;88.48;99833.70;1706686;83;21135;-62
2022/03/03 11:21:59;;;;;;;8.88;4.87;;;;;;;2.95;88.38;99833.55;1654484;86;21490;-61
2022/03/03 11:24:33;;;;;;;8.38;4.97;;;;;;;2.99;88.43;99832.20;1706844;83;21127;-61
2022/03/03 11:27:04;;;;;;;7.30;4.62;;;;;;;3.03;88.50;99824.11;1654619;86;21142;-62
2022/03/03 11:29:37;;;;;;;8.38;5.03;;;;;;;3.04;88.40;99821.74;1706488;83;21131;-62
2022/03/03 11:32:15;;;;;;;9.03;5.25;;;;;;;3.07;88.32;99817.35;1730969;83;21187;-62
2022/03/03 11:34:46;;;;;;;7.95;4.67;;;;;;;3.08;88.20;99823.95;1730928;83;21175;-60
2022/03/03 11:37:23;;;;;;;8.83;4.47;;;;;;;3.06;88.01;99817.86;1731050;82;21129;-61
2022/03/03 11:39:59;;;;;;;8.13;4.42;;;;;;;3.05;87.84;99818.87;1770701;81;21148;-62
2022/03/03 11:42:36;;;;;;;8.45;4.87;;;;;;;3.07;87.82;99814.65;1774613;81;21155;-61
2022/03/03 11:45:16;;;;;;;;;;;;;;;3.09;87.85;99816.18;1777282;80;21577;-62
2022/03/03 11:47:50;;;;;;;9.58;5.20;;;;;;;3.08;87.46;99813.64;1789663;80;20226;-63
2022/03/03 11:50:24;;;;;;;7.25;4.78;;;;;;;3.02;87.31;99811.59;1774728;80;21262;-61
2022/03/03 11:53:05;;;;;;;9.13;5.08;;;;;;;3.02;87.35;99812.94;1774552;81;21153;-62
2022/03/03 11:55:49;;;;;;;9.00;5.33;;;;;;;3.01;87.27;99810.73;1774498;81;21167;-62
2022/03/03 11:58:34;;;;;;;9.20;5.35;;;;;;;3.03;87.23;99811.92;1774595;81;21158;-61
2022/03/03 12:01:10;;;;;;;8.30;4.92;;;;;;;3.03;87.25;99810.58;1774713;81;21131;-62